createdAt,value
2023-02-16T00:00:48.135Z,0.00
2023-02-16T00:01:48.156Z,0.00
2023-02-16T00:02:48.246Z,0.00
2023-02-16T00:03:48.264Z,0.00
2023-02-16T00:04:48.206Z,0.00
2023-02-16T00:05:48.225Z,0.00
2023-02-16T00:06:48.243Z,0.00
2023-02-16T00:07:48.259Z,0.00
2023-02-16T00:08:48.295Z,0.00
2023-02-16T00:09:48.299Z,0.00
2023-02-16T00:10:48.316Z,0.00
2023-02-16T00:11:48.336Z,0.00
2023-02-16T00:12:48.352Z,0.00
2023-02-16T00:13:48.371Z,0.00
2023-02-16T00:14:48.389Z,0.00
2023-02-16T00:15:48.464Z,0.00
2023-02-16T00:16:48.435Z,0.00
2023-02-16T00:17:48.444Z,0.00
2023-02-16T00:18:48.454Z,0.00
2023-02-16T00:19:48.472Z,0.00
2023-02-16T00:20:48.499Z,0.00
2023-02-16T00:21:48.512Z,0.00
2023-02-16T00:22:48.529Z,0.00
2023-02-16T00:23:48.558Z,0.00
2023-02-16T00:24:48.563Z,0.00
2023-02-16T00:25:48.581Z,0.00
2023-02-16T00:26:48.604Z,0.00
2023-02-16T00:27:48.623Z,0.00
2023-02-16T00:28:48.644Z,0.00
2023-02-16T00:29:48.650Z,0.00
2023-02-16T00:30:48.766Z,0.00
2023-02-16T00:31:48.829Z,0.00
2023-02-16T00:32:48.708Z,0.00
2023-02-16T00:33:48.737Z,0.00
2023-02-16T00:34:48.739Z,0.00
2023-02-16T00:35:48.767Z,0.00
2023-02-16T00:36:48.777Z,0.00
2023-02-16T00:37:48.808Z,0.00
2023-02-16T00:38:48.816Z,0.00
2023-02-16T00:39:48.836Z,0.00
2023-02-16T00:40:48.849Z,0.00
2023-02-16T00:41:48.868Z,0.00
2023-02-16T00:42:48.893Z,0.00
2023-02-16T00:43:48.903Z,0.00
2023-02-16T00:44:48.927Z,0.00
2023-02-16T00:45:48.952Z,0.00
2023-02-16T00:46:48.954Z,0.00
2023-02-16T00:47:48.970Z,0.00
2023-02-16T00:48:48.991Z,0.00
2023-02-16T00:49:49.025Z,0.00
2023-02-16T00:50:49.033Z,0.00
2023-02-16T00:51:49.045Z,0.00
2023-02-16T00:52:49.062Z,0.00
2023-02-16T00:53:49.074Z,0.00
2023-02-16T00:54:49.095Z,0.00
2023-02-16T00:55:49.121Z,0.00
2023-02-16T00:56:49.136Z,0.00
2023-02-16T00:57:49.144Z,0.00
2023-02-16T00:58:49.165Z,0.00
2023-02-16T00:59:49.193Z,0.00
2023-02-16T01:00:49.201Z,0.00
2023-02-16T01:01:49.267Z,0.00
2023-02-16T01:02:49.232Z,0.00
2023-02-16T01:03:49.248Z,0.00
2023-02-16T01:04:49.320Z,0.00
2023-02-16T01:05:49.285Z,0.00
2023-02-16T01:06:49.301Z,0.00
2023-02-16T01:07:49.333Z,0.00
2023-02-16T01:08:49.335Z,0.00
2023-02-16T01:09:49.350Z,0.00
2023-02-16T01:10:49.368Z,0.00
2023-02-16T01:11:49.383Z,0.00
2023-02-16T01:12:49.402Z,0.00
2023-02-16T01:13:49.420Z,0.00
2023-02-16T01:14:49.440Z,0.00
2023-02-16T01:15:49.573Z,0.00
2023-02-16T01:16:49.475Z,0.00
2023-02-16T01:17:49.497Z,0.00
2023-02-16T01:18:49.504Z,0.00
2023-02-16T01:19:49.520Z,0.00
2023-02-16T01:20:49.569Z,0.00
2023-02-16T01:21:49.552Z,0.00
2023-02-16T01:22:49.571Z,0.00
2023-02-16T01:23:49.603Z,0.00
2023-02-16T01:24:49.609Z,0.00
2023-02-16T01:25:49.624Z,0.00
2023-02-16T01:26:49.639Z,0.00
2023-02-16T01:27:49.659Z,0.00
2023-02-16T01:28:49.698Z,0.00
2023-02-16T01:29:49.691Z,0.00
2023-02-16T01:30:49.764Z,0.00
2023-02-16T01:31:49.834Z,0.00
2023-02-16T01:32:49.742Z,0.00
2023-02-16T01:33:49.757Z,0.00
2023-02-16T01:34:49.780Z,0.00
2023-02-16T01:35:49.794Z,0.00
2023-02-16T01:36:49.857Z,0.00
2023-02-16T01:37:49.832Z,0.00
2023-02-16T01:38:49.848Z,0.00
2023-02-16T01:39:49.862Z,0.00
2023-02-16T01:40:49.877Z,0.00
2023-02-16T01:41:49.900Z,0.00
2023-02-16T01:42:49.920Z,0.00
2023-02-16T01:43:49.929Z,0.00
2023-02-16T01:44:49.961Z,0.00
2023-02-16T01:45:49.963Z,0.00
2023-02-16T01:46:50.003Z,0.00
2023-02-16T01:47:49.992Z,0.00
2023-02-16T01:48:50.027Z,0.00
2023-02-16T01:49:50.036Z,0.00
2023-02-16T01:50:51.043Z,0.00
2023-02-16T01:51:50.067Z,0.00
2023-02-16T01:52:50.093Z,0.00
2023-02-16T01:53:50.100Z,0.00
2023-02-16T01:54:50.115Z,0.00
2023-02-16T01:55:50.137Z,0.00
2023-02-16T01:56:50.150Z,0.00
2023-02-16T01:57:50.174Z,0.00
2023-02-16T01:58:50.187Z,0.00
2023-02-16T01:59:50.199Z,0.00
2023-02-16T02:00:50.220Z,0.00
2023-02-16T02:01:50.267Z,0.00
2023-02-16T02:02:50.292Z,0.00
2023-02-16T02:03:50.272Z,0.00
2023-02-16T02:04:50.302Z,0.00
2023-02-16T02:05:50.311Z,0.00
2023-02-16T02:06:50.321Z,0.00
2023-02-16T02:07:50.344Z,0.00
2023-02-16T02:08:50.362Z,0.00
2023-02-16T02:09:50.368Z,0.00
2023-02-16T02:10:50.388Z,0.00
2023-02-16T02:11:50.406Z,0.00
2023-02-16T02:12:50.455Z,0.00
2023-02-16T02:13:50.436Z,0.00
2023-02-16T02:14:50.455Z,0.00
2023-02-16T02:15:50.487Z,0.00
2023-02-16T02:16:50.488Z,0.00
2023-02-16T02:17:50.506Z,0.00
2023-02-16T02:18:50.520Z,0.00
2023-02-16T02:19:50.569Z,0.00
2023-02-16T02:20:50.602Z,0.00
2023-02-16T02:21:50.583Z,0.00
2023-02-16T02:22:50.585Z,0.00
2023-02-16T02:23:50.611Z,0.00
2023-02-16T02:24:50.620Z,0.00
2023-02-16T02:25:50.650Z,0.00
2023-02-16T02:26:50.652Z,0.00
2023-02-16T02:27:50.673Z,0.00
2023-02-16T02:28:50.688Z,0.00
2023-02-16T02:29:50.718Z,0.00
2023-02-16T02:30:50.762Z,0.00
2023-02-16T02:31:50.850Z,0.00
2023-02-16T02:32:50.755Z,0.00
2023-02-16T02:33:50.770Z,0.00
2023-02-16T02:34:50.792Z,0.00
2023-02-16T02:35:50.822Z,0.00
2023-02-16T02:36:50.832Z,0.00
2023-02-16T02:37:50.839Z,0.00
2023-02-16T02:38:50.857Z,0.00
2023-02-16T02:39:50.890Z,0.00
2023-02-16T02:40:50.890Z,0.00
2023-02-16T02:41:50.903Z,0.00
2023-02-16T02:42:50.921Z,0.00
2023-02-16T02:43:50.946Z,0.00
2023-02-16T02:44:50.959Z,0.00
2023-02-16T02:45:50.968Z,0.00
2023-02-16T02:46:51.045Z,0.00
2023-02-16T02:47:51.006Z,0.00
2023-02-16T02:48:51.022Z,0.00
2023-02-16T02:49:51.036Z,0.00
2023-02-16T02:50:51.058Z,0.00
2023-02-16T02:51:51.078Z,0.00
2023-02-16T02:52:51.088Z,0.00
2023-02-16T02:53:51.106Z,0.00
2023-02-16T02:54:51.122Z,0.00
2023-02-16T02:55:51.162Z,0.00
2023-02-16T02:56:51.156Z,0.00
2023-02-16T02:57:51.168Z,0.00
2023-02-16T02:58:51.190Z,0.00
2023-02-16T02:59:51.202Z,0.00
2023-02-16T03:00:51.285Z,0.00
2023-02-16T03:01:51.272Z,0.00
2023-02-16T03:02:51.267Z,0.00
2023-02-16T03:03:51.265Z,0.00
2023-02-16T03:04:51.284Z,0.00
2023-02-16T03:05:51.301Z,0.00
2023-02-16T03:06:51.317Z,0.00
2023-02-16T03:07:51.334Z,0.00
2023-02-16T03:08:51.359Z,0.00
2023-02-16T03:09:51.368Z,0.00
2023-02-16T03:10:51.385Z,0.00
2023-02-16T03:11:51.407Z,0.00
2023-02-16T03:12:51.428Z,0.00
2023-02-16T03:13:51.468Z,0.00
2023-02-16T03:14:51.450Z,0.00
2023-02-16T03:15:51.474Z,0.00
2023-02-16T03:16:51.482Z,0.00
2023-02-16T03:17:51.499Z,0.00
2023-02-16T03:18:51.517Z,0.00
2023-02-16T03:19:51.531Z,0.00
2023-02-16T03:20:51.555Z,0.00
2023-02-16T03:21:51.583Z,0.00
2023-02-16T03:22:51.584Z,0.00
2023-02-16T03:23:51.596Z,0.00
2023-02-16T03:24:51.614Z,0.00
2023-02-16T03:25:51.634Z,0.00
2023-02-16T03:26:51.656Z,0.00
2023-02-16T03:27:51.676Z,0.00
2023-02-16T03:28:51.678Z,0.00
2023-02-16T03:29:51.754Z,0.00
2023-02-16T03:30:51.726Z,0.00
2023-02-16T03:31:51.770Z,0.00
2023-02-16T03:32:51.743Z,0.00
2023-02-16T03:33:51.771Z,0.00
2023-02-16T03:34:51.772Z,0.00
2023-02-16T03:35:51.783Z,0.00
2023-02-16T03:36:51.806Z,0.00
2023-02-16T03:37:51.821Z,0.00
2023-02-16T03:38:51.842Z,0.00
2023-02-16T03:39:51.854Z,0.00
2023-02-16T03:40:51.881Z,0.00
2023-02-16T03:41:51.888Z,0.00
2023-02-16T03:42:51.904Z,0.00
2023-02-16T03:43:51.921Z,0.00
2023-02-16T03:44:51.944Z,0.00
2023-02-16T03:45:52.010Z,0.00
2023-02-16T03:46:52.024Z,0.00
2023-02-16T03:47:51.985Z,0.00
2023-02-16T03:48:52.016Z,0.00
2023-02-16T03:49:52.014Z,0.00
2023-02-16T03:50:52.034Z,0.00
2023-02-16T03:51:52.048Z,0.00
2023-02-16T03:52:52.066Z,0.00
2023-02-16T03:53:52.080Z,0.00
2023-02-16T03:54:52.111Z,0.00
2023-02-16T03:55:52.124Z,0.00
2023-02-16T03:56:52.134Z,0.00
2023-02-16T03:57:52.154Z,0.00
2023-02-16T03:58:52.195Z,0.00
2023-02-16T03:59:52.180Z,0.00
2023-02-16T04:00:52.209Z,0.00
2023-02-16T04:01:52.251Z,0.00
2023-02-16T04:02:52.225Z,0.00
2023-02-16T04:03:52.325Z,0.00
2023-02-16T04:04:52.270Z,0.00
2023-02-16T04:05:52.280Z,0.00
2023-02-16T04:06:52.296Z,0.00
2023-02-16T04:07:52.328Z,0.00
2023-02-16T04:08:52.336Z,0.00
2023-02-16T04:09:52.344Z,0.00
2023-02-16T04:10:52.366Z,0.00
2023-02-16T04:11:52.380Z,0.00
2023-02-16T04:12:52.406Z,0.00
2023-02-16T04:13:52.410Z,0.00
2023-02-16T04:14:52.455Z,0.00
2023-02-16T04:15:52.445Z,0.00
2023-02-16T04:16:52.563Z,0.00
2023-02-16T04:17:52.472Z,0.00
2023-02-16T04:18:52.530Z,0.00
2023-02-16T04:19:52.522Z,0.00
2023-02-16T04:20:52.527Z,0.00
2023-02-16T04:21:52.540Z,0.00
2023-02-16T04:22:52.578Z,0.00
2023-02-16T04:23:52.569Z,0.00
2023-02-16T04:24:52.594Z,0.00
2023-02-16T04:25:52.611Z,0.00
2023-02-16T04:26:52.686Z,0.00
2023-02-16T04:27:52.652Z,0.00
2023-02-16T04:28:52.649Z,0.00
2023-02-16T04:29:52.719Z,0.00
2023-02-16T04:30:52.733Z,0.00
2023-02-16T04:31:52.870Z,0.00
2023-02-16T04:32:52.715Z,0.00
2023-02-16T04:33:52.730Z,0.00
2023-02-16T04:34:52.748Z,0.00
2023-02-16T04:35:52.759Z,0.00
2023-02-16T04:36:52.781Z,0.00
2023-02-16T04:37:52.803Z,0.00
2023-02-16T04:38:52.809Z,0.00
2023-02-16T04:39:52.844Z,0.00
2023-02-16T04:40:52.846Z,0.00
2023-02-16T04:41:52.853Z,0.00
2023-02-16T04:42:52.873Z,0.00
2023-02-16T04:43:52.892Z,0.00
2023-02-16T04:44:52.916Z,0.00
2023-02-16T04:45:52.959Z,0.00
2023-02-16T04:46:52.935Z,0.00
2023-02-16T04:47:52.957Z,0.00
2023-02-16T04:48:52.970Z,0.00
2023-02-16T04:49:53.007Z,0.00
2023-02-16T04:50:53.018Z,0.00
2023-02-16T04:51:53.020Z,0.00
2023-02-16T04:52:53.039Z,0.00
2023-02-16T04:53:53.049Z,0.00
2023-02-16T04:54:53.066Z,0.00
2023-02-16T04:55:53.081Z,0.00
2023-02-16T04:56:53.142Z,0.00
2023-02-16T04:57:53.130Z,0.00
2023-02-16T04:58:53.128Z,0.00
2023-02-16T04:59:53.153Z,0.00
2023-02-16T05:00:53.174Z,0.00
2023-02-16T05:01:53.314Z,0.00
2023-02-16T05:02:53.194Z,0.00
2023-02-16T05:03:53.210Z,0.00
2023-02-16T05:04:53.301Z,0.00
2023-02-16T05:05:53.242Z,0.00
2023-02-16T05:06:53.267Z,0.00
2023-02-16T05:07:53.281Z,0.00
2023-02-16T05:08:53.291Z,0.00
2023-02-16T05:09:53.311Z,0.00
2023-02-16T05:10:53.322Z,0.00
2023-02-16T05:11:53.357Z,0.00
2023-02-16T05:12:53.350Z,0.00
2023-02-16T05:13:53.378Z,0.00
2023-02-16T05:14:53.397Z,0.00
2023-02-16T05:15:53.431Z,0.00
2023-02-16T05:16:53.416Z,0.00
2023-02-16T05:17:53.457Z,0.00
2023-02-16T05:18:53.456Z,0.00
2023-02-16T05:19:53.495Z,0.00
2023-02-16T05:20:53.496Z,0.00
2023-02-16T05:21:53.497Z,0.00
2023-02-16T05:22:53.514Z,0.00
2023-02-16T05:23:53.537Z,0.00
2023-02-16T05:24:53.548Z,0.00
2023-02-16T05:25:53.561Z,0.00
2023-02-16T05:26:53.580Z,0.00
2023-02-16T05:27:53.614Z,0.00
2023-02-16T05:28:53.616Z,0.00
2023-02-16T05:29:53.701Z,0.00
2023-02-16T05:30:53.687Z,0.00
2023-02-16T05:31:53.740Z,0.00
2023-02-16T05:32:53.674Z,0.00
2023-02-16T05:33:53.692Z,0.00
2023-02-16T05:34:53.710Z,0.00
2023-02-16T05:35:53.741Z,0.00
2023-02-16T05:36:53.758Z,0.00
2023-02-16T05:37:53.758Z,0.00
2023-02-16T05:38:53.776Z,0.00
2023-02-16T05:39:53.801Z,0.00
2023-02-16T05:40:53.813Z,0.00
2023-02-16T05:41:53.855Z,0.00
2023-02-16T05:42:53.835Z,0.00
2023-02-16T05:43:53.857Z,0.00
2023-02-16T05:44:53.875Z,0.00
2023-02-16T05:45:53.931Z,0.00
2023-02-16T05:46:53.905Z,0.00
2023-02-16T05:47:53.924Z,0.00
2023-02-16T05:48:53.940Z,0.00
2023-02-16T05:49:53.952Z,0.00
2023-02-16T05:50:53.969Z,0.00
2023-02-16T05:51:54.035Z,0.00
2023-02-16T05:52:54.000Z,0.00
2023-02-16T05:53:54.020Z,0.00
2023-02-16T05:54:54.046Z,0.00
2023-02-16T05:55:54.060Z,0.00
2023-02-16T05:56:54.089Z,0.00
2023-02-16T05:57:54.092Z,0.00
2023-02-16T05:58:54.108Z,0.00
2023-02-16T05:59:54.119Z,0.00
2023-02-16T06:00:54.138Z,0.00
2023-02-16T06:01:54.164Z,0.00
2023-02-16T06:02:54.237Z,0.00
2023-02-16T06:03:54.263Z,0.00
2023-02-16T06:04:54.215Z,0.00
2023-02-16T06:05:54.214Z,0.00
2023-02-16T06:06:54.236Z,0.00
2023-02-16T06:07:54.252Z,0.00
2023-02-16T06:08:54.281Z,0.00
2023-02-16T06:09:54.280Z,4.00
2023-02-16T06:10:54.298Z,4.00
2023-02-16T06:11:54.312Z,0.00
2023-02-16T06:12:54.334Z,4.00
2023-02-16T06:13:54.348Z,4.00
2023-02-16T06:14:54.360Z,4.00
2023-02-16T06:15:54.402Z,4.00
2023-02-16T06:16:54.391Z,4.00
2023-02-16T06:17:54.406Z,8.00
2023-02-16T06:19:01.587Z,12.00
2023-02-16T06:20:58.904Z,12.00
2023-02-16T06:21:58.419Z,16.00
2023-02-16T06:24:02.424Z,24.00
2023-02-16T06:25:02.420Z,24.00
2023-02-16T06:27:06.895Z,36.00
2023-02-16T06:28:06.419Z,44.00
2023-02-16T06:29:59.527Z,56.00
2023-02-16T06:30:59.461Z,64.00
2023-02-16T06:33:03.924Z,80.00
2023-02-16T06:34:03.458Z,88.00
2023-02-16T06:36:07.460Z,116.00
2023-02-16T06:37:07.463Z,128.00
2023-02-16T06:39:11.966Z,156.00
2023-02-16T06:40:11.473Z,176.00
2023-02-16T06:42:15.470Z,216.00
2023-02-16T06:43:15.476Z,240.00
2023-02-16T06:45:19.961Z,292.00
2023-02-16T06:46:19.514Z,324.00
2023-02-16T06:48:23.490Z,396.00
2023-02-16T06:49:25.423Z,428.00
2023-02-16T06:51:27.962Z,520.00
2023-02-16T06:52:27.513Z,568.00
2023-02-16T06:54:31.564Z,652.00
2023-02-16T06:55:31.500Z,684.00
2023-02-16T06:57:35.979Z,768.00
2023-02-16T06:58:35.507Z,816.00
2023-02-16T07:00:39.596Z,896.00
2023-02-16T07:01:39.512Z,920.00
2023-02-16T07:03:44.004Z,924.00
2023-02-16T07:04:43.509Z,944.00
2023-02-16T07:06:47.512Z,1040.00
2023-02-16T07:07:47.511Z,1132.00
2023-02-16T07:09:40.992Z,1312.00
2023-02-16T07:10:49.790Z,1376.00
2023-02-16T07:12:44.443Z,1420.00
2023-02-16T07:13:44.456Z,1428.00
2023-02-16T07:15:48.935Z,1452.00
2023-02-16T07:16:48.550Z,1496.00
2023-02-16T07:18:52.460Z,1684.00
2023-02-16T07:19:52.464Z,1764.00
2023-02-16T07:21:56.945Z,1864.00
2023-02-16T07:22:56.503Z,1876.00
2023-02-16T07:25:01.130Z,1912.00
2023-02-16T07:26:00.495Z,1932.00
2023-02-16T07:27:00.502Z,1968.00
2023-02-16T07:28:00.520Z,1976.00
2023-02-16T07:29:00.536Z,1980.00
2023-02-16T07:30:00.714Z,1964.00
2023-02-16T07:31:00.604Z,1944.00
2023-02-16T07:32:00.752Z,1928.00
2023-02-16T07:33:00.609Z,1916.00
2023-02-16T07:34:00.630Z,1888.00
2023-02-16T07:35:00.639Z,1852.00
2023-02-16T07:36:00.661Z,1812.00
2023-02-16T07:37:00.673Z,1772.00
2023-02-16T07:38:00.690Z,1744.00
2023-02-16T07:39:00.709Z,1728.00
2023-02-16T07:40:00.724Z,1740.00
2023-02-16T07:41:00.752Z,1776.00
2023-02-16T07:42:00.787Z,1816.00
2023-02-16T07:43:00.777Z,1868.00
2023-02-16T07:44:00.796Z,1912.00
2023-02-16T07:45:00.817Z,1948.00
2023-02-16T07:46:00.896Z,1964.00
2023-02-16T07:47:00.848Z,1968.00
2023-02-16T07:48:00.879Z,1964.00
2023-02-16T07:49:00.895Z,1952.00
2023-02-16T07:50:00.900Z,1932.00
2023-02-16T07:51:00.918Z,1908.00
2023-02-16T07:52:00.938Z,1920.00
2023-02-16T07:53:00.955Z,1956.00
2023-02-16T07:54:00.972Z,2004.00
2023-02-16T07:55:00.988Z,2048.00
2023-02-16T07:56:01.007Z,2084.00
2023-02-16T07:57:01.039Z,2104.00
2023-02-16T07:58:01.042Z,2120.00
2023-02-16T07:59:01.056Z,2156.00
2023-02-16T08:00:01.086Z,2196.00
2023-02-16T08:01:01.098Z,2236.00
2023-02-16T08:02:01.221Z,2256.00
2023-02-16T08:03:01.270Z,2216.00
2023-02-16T08:04:01.147Z,2152.00
2023-02-16T08:05:01.168Z,2076.00
2023-02-16T08:06:01.209Z,2012.00
2023-02-16T08:07:01.202Z,1932.00
2023-02-16T08:08:01.222Z,1868.00
2023-02-16T08:09:01.248Z,1892.00
2023-02-16T08:10:01.258Z,1996.00
2023-02-16T08:11:01.277Z,2144.00
2023-02-16T08:12:01.305Z,2268.00
2023-02-16T08:13:01.311Z,2444.00
2023-02-16T08:14:01.331Z,2568.00
2023-02-16T08:15:01.351Z,2652.00
2023-02-16T08:16:01.405Z,2716.00
2023-02-16T08:17:01.477Z,2740.00
2023-02-16T08:18:01.404Z,2704.00
2023-02-16T08:19:01.436Z,2592.00
2023-02-16T08:20:01.444Z,2460.00
2023-02-16T08:21:04.561Z,2392.00
2023-02-16T08:22:01.551Z,2448.00
2023-02-16T08:23:01.509Z,2620.00
2023-02-16T08:24:01.531Z,2844.00
2023-02-16T08:25:01.557Z,3072.00
2023-02-16T08:26:01.828Z,3288.00
2023-02-16T08:27:01.753Z,3492.00
2023-02-16T08:28:01.589Z,3680.00
2023-02-16T08:29:01.613Z,3864.00
2023-02-16T08:30:01.665Z,4056.00
2023-02-16T08:31:01.658Z,4244.00
2023-02-16T08:32:01.687Z,4436.00
2023-02-16T08:33:01.683Z,4676.00
2023-02-16T08:34:01.703Z,4924.00
2023-02-16T08:35:01.735Z,5124.00
2023-02-16T08:36:01.995Z,5320.00
2023-02-16T08:37:01.758Z,5496.00
2023-02-16T08:38:01.778Z,5628.00
2023-02-16T08:39:01.798Z,5696.00
2023-02-16T08:40:01.819Z,5696.00
2023-02-16T08:41:01.833Z,5620.00
2023-02-16T08:42:01.996Z,5532.00
2023-02-16T08:43:01.876Z,5484.00
2023-02-16T08:44:01.898Z,5496.00
2023-02-16T08:45:01.909Z,5520.00
2023-02-16T08:46:02.012Z,5536.00
2023-02-16T08:47:01.950Z,5520.00
2023-02-16T08:48:01.963Z,5480.00
2023-02-16T08:49:01.988Z,5448.00
2023-02-16T08:50:02.004Z,5396.00
2023-02-16T08:51:02.020Z,5348.00
2023-02-16T08:52:02.041Z,5320.00
2023-02-16T08:53:02.061Z,5280.00
2023-02-16T08:54:03.762Z,5220.00
2023-02-16T08:55:02.099Z,5140.00
2023-02-16T08:56:02.516Z,5056.00
2023-02-16T08:57:02.151Z,5000.00
2023-02-16T08:58:02.175Z,4972.00
2023-02-16T08:59:02.177Z,4952.00
2023-02-16T09:00:02.196Z,4876.00
2023-02-16T09:01:02.263Z,4812.00
2023-02-16T09:02:02.274Z,4816.00
2023-02-16T09:03:02.256Z,4820.00
2023-02-16T09:04:02.275Z,4804.00
2023-02-16T09:05:02.304Z,4820.00
2023-02-16T09:06:02.655Z,4820.00
2023-02-16T09:07:02.339Z,4792.00
2023-02-16T09:08:02.360Z,4732.00
2023-02-16T09:09:02.369Z,4692.00
2023-02-16T09:10:02.402Z,4724.00
2023-02-16T09:11:02.743Z,4720.00
2023-02-16T09:12:02.443Z,4728.00
2023-02-16T09:13:02.448Z,4828.00
2023-02-16T09:14:02.467Z,4976.00
2023-02-16T09:15:02.491Z,5128.00
2023-02-16T09:16:02.820Z,5248.00
2023-02-16T09:17:02.595Z,5432.00
2023-02-16T09:18:02.549Z,5684.00
2023-02-16T09:19:02.570Z,6012.00
2023-02-16T09:20:02.586Z,6380.00
2023-02-16T09:21:02.608Z,6644.00
2023-02-16T09:22:02.629Z,6892.00
2023-02-16T09:23:02.651Z,7028.00
2023-02-16T09:24:02.672Z,7044.00
2023-02-16T09:25:02.694Z,6988.00
2023-02-16T09:26:03.116Z,6820.00
2023-02-16T09:27:02.727Z,6656.00
2023-02-16T09:28:02.752Z,6508.00
2023-02-16T09:29:02.769Z,6412.00
2023-02-16T09:30:02.793Z,6328.00
2023-02-16T09:31:02.957Z,6296.00
2023-02-16T09:32:02.864Z,6324.00
2023-02-16T09:33:02.851Z,6344.00
2023-02-16T09:34:02.867Z,6372.00
2023-02-16T09:35:02.891Z,6476.00
2023-02-16T09:36:03.363Z,6584.00
2023-02-16T09:37:02.935Z,6704.00
2023-02-16T09:38:02.960Z,6788.00
2023-02-16T09:39:02.971Z,6796.00
2023-02-16T09:40:02.993Z,6728.00
2023-02-16T09:41:03.013Z,6552.00
2023-02-16T09:42:03.039Z,6324.00
2023-02-16T09:43:03.058Z,6132.00
2023-02-16T09:44:03.075Z,6020.00
2023-02-16T09:45:03.094Z,6020.00
2023-02-16T09:46:03.611Z,6028.00
2023-02-16T09:47:03.136Z,6020.00
2023-02-16T09:48:03.164Z,5964.00
2023-02-16T09:49:03.181Z,5856.00
2023-02-16T09:50:03.203Z,5744.00
2023-02-16T09:51:03.225Z,5712.00
2023-02-16T09:52:03.240Z,5636.00
2023-02-16T09:53:03.262Z,5588.00
2023-02-16T09:54:03.293Z,5508.00
2023-02-16T09:55:03.304Z,5420.00
2023-02-16T09:56:03.596Z,5344.00
2023-02-16T09:57:03.346Z,5220.00
2023-02-16T09:58:03.371Z,5104.00
2023-02-16T09:59:03.404Z,5096.00
2023-02-16T10:00:03.412Z,5164.00
2023-02-16T10:01:03.465Z,5208.00
2023-02-16T10:02:03.456Z,5200.00
2023-02-16T10:03:03.475Z,5364.00
2023-02-16T10:04:03.492Z,5672.00
2023-02-16T10:05:03.521Z,5912.00
2023-02-16T10:06:03.842Z,6072.00
2023-02-16T10:07:03.558Z,6168.00
2023-02-16T10:08:03.582Z,6324.00
2023-02-16T10:09:03.598Z,6556.00
2023-02-16T10:10:03.620Z,6688.00
2023-02-16T10:11:03.965Z,6844.00
2023-02-16T10:12:03.663Z,7000.00
2023-02-16T10:13:03.697Z,7200.00
2023-02-16T10:14:03.705Z,7384.00
2023-02-16T10:15:03.732Z,7476.00
2023-02-16T10:16:03.785Z,7416.00
2023-02-16T10:17:03.771Z,7372.00
2023-02-16T10:18:03.791Z,7236.00
2023-02-16T10:19:03.812Z,7104.00
2023-02-16T10:20:03.834Z,7020.00
2023-02-16T10:21:04.277Z,7100.00
2023-02-16T10:22:03.877Z,7440.00
2023-02-16T10:23:03.900Z,7864.00
2023-02-16T10:24:03.922Z,8124.00
2023-02-16T10:25:03.937Z,8148.00
2023-02-16T10:26:03.964Z,8004.00
2023-02-16T10:27:03.986Z,7948.00
2023-02-16T10:28:04.020Z,7856.00
2023-02-16T10:29:04.028Z,7776.00
2023-02-16T10:30:04.160Z,7664.00
2023-02-16T10:31:04.553Z,7560.00
2023-02-16T10:32:04.173Z,7460.00
2023-02-16T10:33:04.134Z,7396.00
2023-02-16T10:34:04.140Z,7296.00
2023-02-16T10:35:04.164Z,7180.00
2023-02-16T10:36:04.191Z,7080.00
2023-02-16T10:37:04.214Z,6960.00
2023-02-16T10:38:04.233Z,6848.00
2023-02-16T10:39:04.269Z,6812.00
2023-02-16T10:40:04.281Z,6840.00
2023-02-16T10:41:04.584Z,6848.00
2023-02-16T10:42:04.323Z,6752.00
2023-02-16T10:43:04.359Z,6564.00
2023-02-16T10:44:04.379Z,6224.00
2023-02-16T10:45:04.388Z,5996.00
2023-02-16T10:46:04.432Z,6000.00
2023-02-16T10:47:04.450Z,6112.00
2023-02-16T10:48:04.475Z,6220.00
2023-02-16T10:49:04.477Z,6196.00
2023-02-16T10:50:04.502Z,6084.00
2023-02-16T10:51:04.783Z,6108.00
2023-02-16T10:52:04.564Z,6228.00
2023-02-16T10:53:04.573Z,6268.00
2023-02-16T10:54:04.592Z,6296.00
2023-02-16T10:55:04.614Z,6384.00
2023-02-16T10:56:04.638Z,6512.00
2023-02-16T10:57:04.664Z,6608.00
2023-02-16T10:58:04.693Z,6620.00
2023-02-16T10:59:04.706Z,6724.00
2023-02-16T11:00:04.730Z,6940.00
2023-02-16T11:01:05.070Z,7052.00
2023-02-16T11:02:04.778Z,6984.00
2023-02-16T11:03:04.796Z,6648.00
2023-02-16T11:04:04.864Z,6076.00
2023-02-16T11:05:04.908Z,5748.00
2023-02-16T11:06:05.180Z,5836.00
2023-02-16T11:07:04.888Z,5992.00
2023-02-16T11:08:04.909Z,6012.00
2023-02-16T11:09:04.933Z,5980.00
2023-02-16T11:10:05.033Z,5864.00
2023-02-16T11:11:05.360Z,5688.00
2023-02-16T11:12:05.002Z,5516.00
2023-02-16T11:13:05.023Z,5648.00
2023-02-16T11:14:06.403Z,5728.00
2023-02-16T11:15:05.066Z,5732.00
2023-02-16T11:16:05.214Z,5848.00
2023-02-16T11:17:05.127Z,6088.00
2023-02-16T11:18:05.134Z,6416.00
2023-02-16T11:19:05.162Z,6708.00
2023-02-16T11:20:05.190Z,6904.00
2023-02-16T11:21:05.453Z,7012.00
2023-02-16T11:22:05.226Z,7064.00
2023-02-16T11:23:05.257Z,7056.00
2023-02-16T11:24:05.288Z,7008.00
2023-02-16T11:25:05.293Z,6980.00
2023-02-16T11:26:05.317Z,7068.00
2023-02-16T11:27:05.341Z,7180.00
2023-02-16T11:28:05.370Z,7236.00
2023-02-16T11:29:05.385Z,7232.00
2023-02-16T11:30:05.442Z,7188.00
2023-02-16T11:31:05.783Z,7076.00
2023-02-16T11:32:05.463Z,6964.00
2023-02-16T11:33:05.480Z,6880.00
2023-02-16T11:34:06.244Z,6880.00
2023-02-16T11:35:05.523Z,6912.00
2023-02-16T11:36:05.552Z,6904.00
2023-02-16T11:37:05.568Z,6804.00
2023-02-16T11:38:05.593Z,6616.00
2023-02-16T11:39:05.615Z,6352.00
2023-02-16T11:40:05.638Z,6000.00
2023-02-16T11:41:06.008Z,5780.00
2023-02-16T11:42:05.680Z,5832.00
2023-02-16T11:43:05.704Z,5912.00
2023-02-16T11:44:05.723Z,5980.00
2023-02-16T11:45:05.747Z,6004.00
2023-02-16T11:46:06.046Z,6008.00
2023-02-16T11:47:05.788Z,5908.00
2023-02-16T11:48:05.817Z,5836.00
2023-02-16T11:49:05.834Z,5888.00
2023-02-16T11:50:05.858Z,5996.00
2023-02-16T11:51:06.296Z,6260.00
2023-02-16T11:52:05.901Z,6612.00
2023-02-16T11:53:05.924Z,6904.00
2023-02-16T11:54:05.954Z,7208.00
2023-02-16T11:55:05.977Z,7416.00
2023-02-16T11:56:06.185Z,7460.00
2023-02-16T11:57:06.015Z,7352.00
2023-02-16T11:58:06.040Z,7244.00
2023-02-16T11:59:06.062Z,7240.00
2023-02-16T12:00:06.090Z,7352.00
2023-02-16T12:01:06.333Z,7432.00
2023-02-16T12:02:06.131Z,7492.00
2023-02-16T12:03:06.175Z,7468.00
2023-02-16T12:04:06.227Z,7432.00
2023-02-16T12:05:06.239Z,7356.00
2023-02-16T12:06:06.220Z,7244.00
2023-02-16T12:07:06.259Z,7100.00
2023-02-16T12:08:06.292Z,6940.00
2023-02-16T12:09:06.321Z,6888.00
2023-02-16T12:10:06.317Z,6940.00
2023-02-16T12:11:06.623Z,7016.00
2023-02-16T12:12:06.369Z,7132.00
2023-02-16T12:13:06.390Z,7272.00
2023-02-16T12:14:06.416Z,7376.00
2023-02-16T12:15:06.434Z,7472.00
2023-02-16T12:16:08.714Z,7532.00
2023-02-16T12:17:06.478Z,7584.00
2023-02-16T12:18:06.502Z,7612.00
2023-02-16T12:19:06.524Z,7664.00
2023-02-16T12:20:06.551Z,7756.00
2023-02-16T12:21:06.574Z,7872.00
2023-02-16T12:22:06.592Z,7788.00
2023-02-16T12:23:06.636Z,7248.00
2023-02-16T12:24:06.676Z,6724.00
2023-02-16T12:25:06.666Z,6572.00
2023-02-16T12:26:07.042Z,7344.00
2023-02-16T12:27:06.718Z,7052.00
2023-02-16T12:28:06.734Z,6564.00
2023-02-16T12:29:06.767Z,7084.00
2023-02-16T12:30:06.840Z,7484.00
2023-02-16T12:31:06.822Z,7204.00
2023-02-16T12:32:06.900Z,6660.00
2023-02-16T12:33:06.852Z,6724.00
2023-02-16T12:34:06.874Z,7380.00
2023-02-16T12:35:06.896Z,7104.00
2023-02-16T12:36:07.208Z,6312.00
2023-02-16T12:37:06.941Z,5844.00
2023-02-16T12:38:06.975Z,5712.00
2023-02-16T12:39:14.169Z,5660.00
2023-02-16T12:41:00.859Z,5760.00
2023-02-16T12:41:59.963Z,5924.00
2023-02-16T12:44:03.980Z,5676.00
2023-02-16T12:45:03.994Z,5228.00
2023-02-16T12:47:08.494Z,3984.00
2023-02-16T12:48:08.026Z,3400.00
2023-02-16T12:50:00.958Z,2912.00
2023-02-16T12:51:00.969Z,2908.00
2023-02-16T12:53:05.460Z,2820.00
2023-02-16T12:54:04.987Z,2488.00
2023-02-16T12:56:09.002Z,2252.00
2023-02-16T12:57:09.016Z,2492.00
2023-02-16T12:59:13.523Z,2736.00
2023-02-16T13:00:13.033Z,2768.00
2023-02-16T13:02:17.038Z,3076.00
2023-02-16T13:03:17.126Z,3180.00
2023-02-16T13:04:17.075Z,3108.00
2023-02-16T13:05:17.095Z,2668.00
2023-02-16T13:06:17.122Z,2236.00
2023-02-16T13:07:17.152Z,2072.00
2023-02-16T13:08:17.184Z,2108.00
2023-02-16T13:09:17.192Z,2216.00
2023-02-16T13:10:17.216Z,2424.00
2023-02-16T13:11:17.266Z,2592.00
2023-02-16T13:12:17.268Z,2712.00
2023-02-16T13:13:17.294Z,2640.00